createdAt,value
2024-02-11T00:01:35.090Z,9.00
2024-02-11T00:04:05.688Z,9.10
2024-02-11T00:06:32.707Z,9.10
2024-02-11T00:08:59.396Z,9.00
2024-02-11T00:11:29.499Z,9.00
2024-02-11T00:13:56.655Z,8.90
2024-02-11T00:16:24.831Z,8.90
2024-02-11T00:18:51.473Z,8.80
2024-02-11T00:21:18.121Z,8.90
2024-02-11T00:23:46.137Z,8.90
2024-02-11T00:26:13.201Z,8.90
2024-02-11T00:28:39.904Z,8.90
2024-02-11T00:31:06.718Z,8.90
2024-02-11T00:33:34.247Z,8.80
2024-02-11T00:36:01.723Z,8.80
2024-02-11T00:38:28.651Z,8.80
2024-02-11T00:40:55.377Z,8.90
2024-02-11T00:43:21.963Z,8.90
2024-02-11T00:45:48.561Z,9.00
2024-02-11T00:48:15.239Z,9.00
2024-02-11T00:50:42.127Z,9.00
2024-02-11T00:53:08.837Z,9.00
2024-02-11T00:55:37.210Z,9.00
2024-02-11T00:58:04.414Z,9.00
2024-02-11T01:00:31.567Z,9.00
2024-02-11T01:02:58.202Z,9.00
2024-02-11T01:05:25.276Z,9.00
2024-02-11T01:07:52.103Z,9.00
2024-02-11T01:10:19.046Z,9.00
2024-02-11T01:12:46.251Z,8.90
2024-02-11T01:15:14.205Z,8.90
2024-02-11T01:17:42.089Z,8.90
2024-02-11T01:20:11.056Z,8.90
2024-02-11T01:22:39.868Z,8.90
2024-02-11T01:25:06.533Z,8.90
2024-02-11T01:27:34.963Z,8.90
2024-02-11T01:30:01.564Z,8.80
2024-02-11T01:32:28.149Z,8.80
2024-02-11T01:34:54.741Z,8.80
2024-02-11T01:37:21.312Z,8.80
2024-02-11T01:39:48.483Z,8.80
2024-02-11T01:42:15.076Z,8.70
2024-02-11T01:44:41.709Z,8.60
2024-02-11T01:47:08.444Z,8.60
2024-02-11T01:49:35.993Z,8.60
2024-02-11T01:52:02.779Z,8.60
2024-02-11T01:54:29.787Z,8.50
2024-02-11T01:56:56.810Z,8.50
2024-02-11T01:59:23.512Z,8.50
2024-02-11T02:01:51.022Z,8.50
2024-02-11T02:04:17.630Z,8.40
2024-02-11T02:06:44.359Z,8.40
2024-02-11T02:09:12.361Z,8.40
2024-02-11T02:11:39.981Z,8.30
2024-02-11T02:14:07.157Z,8.30
2024-02-11T02:16:33.807Z,8.30
2024-02-11T02:19:00.427Z,8.30
2024-02-11T02:21:27.413Z,8.30
2024-02-11T02:23:53.973Z,8.30
2024-02-11T02:26:20.622Z,8.20
2024-02-11T02:28:47.215Z,8.20
2024-02-11T02:31:13.811Z,8.20
2024-02-11T02:33:40.459Z,8.10
2024-02-11T02:36:07.165Z,8.10
2024-02-11T02:38:34.375Z,8.10
2024-02-11T02:41:01.343Z,8.10
2024-02-11T02:43:28.604Z,8.10
2024-02-11T02:45:55.147Z,8.00
2024-02-11T02:48:21.755Z,8.00
2024-02-11T02:50:48.632Z,8.00
2024-02-11T02:53:17.267Z,8.00
2024-02-11T02:55:43.948Z,8.00
2024-02-11T02:58:15.017Z,8.00
2024-02-11T03:00:41.853Z,7.90
2024-02-11T03:03:09.001Z,7.90
2024-02-11T03:05:38.660Z,7.90
2024-02-11T03:08:07.086Z,7.90
2024-02-11T03:10:34.130Z,7.90
2024-02-11T03:13:01.364Z,7.80
2024-02-11T03:15:28.162Z,7.80
2024-02-11T03:17:54.778Z,7.80
2024-02-11T03:20:21.517Z,7.80
2024-02-11T03:22:48.528Z,7.80
2024-02-11T03:25:16.591Z,7.80
2024-02-11T03:27:43.456Z,7.80
2024-02-11T03:30:11.728Z,7.80
2024-02-11T03:32:38.417Z,7.70
2024-02-11T03:35:06.206Z,7.70
2024-02-11T03:37:35.317Z,7.70
2024-02-11T03:40:09.340Z,7.70
2024-02-11T03:42:36.412Z,7.70
2024-02-11T03:45:05.458Z,7.70
2024-02-11T03:47:32.267Z,7.70
2024-02-11T03:49:58.930Z,7.60
2024-02-11T03:52:25.618Z,7.70
2024-02-11T03:54:52.236Z,7.60
2024-02-11T03:57:18.829Z,7.60
2024-02-11T03:59:46.564Z,7.60
2024-02-11T04:02:13.231Z,7.60
2024-02-11T04:04:40.260Z,7.60
2024-02-11T04:07:11.638Z,7.60
2024-02-11T04:09:40.892Z,7.60
2024-02-11T04:12:11.467Z,7.50
2024-02-11T04:14:38.062Z,7.50
2024-02-11T04:17:13.845Z,7.50
2024-02-11T04:19:40.968Z,7.50
2024-02-11T04:22:08.373Z,7.50
2024-02-11T04:24:35.133Z,7.50
2024-02-11T04:27:01.769Z,7.50
2024-02-11T04:29:30.132Z,7.40
2024-02-11T04:31:58.171Z,7.40
2024-02-11T04:34:24.956Z,7.40
2024-02-11T04:36:51.631Z,7.40
2024-02-11T04:39:20.037Z,7.40
2024-02-11T04:41:47.616Z,7.40
2024-02-11T04:44:16.083Z,7.40
2024-02-11T04:46:42.972Z,7.30
2024-02-11T04:49:09.806Z,7.30
2024-02-11T04:51:36.421Z,7.30
2024-02-11T04:54:04.205Z,7.30
2024-02-11T04:56:31.346Z,7.30
2024-02-11T04:59:02.921Z,7.30
2024-02-11T05:01:29.732Z,7.30
2024-02-11T05:03:56.400Z,7.30
2024-02-11T05:06:25.313Z,7.30
2024-02-11T05:08:52.088Z,7.30
2024-02-11T05:11:18.711Z,7.30
2024-02-11T05:13:46.152Z,7.20
2024-02-11T05:16:15.882Z,7.30
2024-02-11T05:18:45.446Z,7.30
2024-02-11T05:21:12.076Z,7.20
2024-02-11T05:23:38.669Z,7.20
2024-02-11T05:29:02.718Z,7.20
2024-02-11T05:31:30.486Z,7.20
2024-02-11T05:33:58.396Z,7.20
2024-02-11T05:36:25.112Z,7.20
2024-02-11T05:38:51.723Z,7.20
2024-02-11T05:41:18.701Z,7.10
2024-02-11T05:43:46.778Z,7.10
2024-02-11T05:46:13.434Z,7.10
2024-02-11T05:48:40.764Z,7.10
2024-02-11T05:51:07.327Z,7.00
2024-02-11T05:53:34.488Z,7.10
2024-02-11T05:56:02.409Z,7.10
2024-02-11T05:58:29.411Z,7.10
2024-02-11T06:00:56.052Z,7.00
2024-02-11T06:03:23.494Z,7.00
2024-02-11T06:05:50.589Z,7.00
2024-02-11T06:08:20.468Z,7.00
2024-02-11T06:10:47.075Z,6.90
2024-02-11T06:13:13.635Z,6.90
2024-02-11T06:15:42.291Z,6.90
2024-02-11T06:18:11.956Z,6.80
2024-02-11T06:20:40.427Z,6.80
2024-02-11T06:23:07.846Z,6.80
2024-02-11T06:25:34.698Z,6.80
2024-02-11T06:28:02.911Z,6.80
2024-02-11T06:30:29.505Z,6.80
2024-02-11T06:32:57.162Z,6.80
2024-02-11T06:35:25.269Z,6.80
2024-02-11T06:37:52.636Z,6.80
2024-02-11T06:40:29.415Z,6.80
2024-02-11T06:42:56.527Z,6.80
2024-02-11T06:45:23.778Z,6.80
2024-02-11T06:47:51.974Z,6.80
2024-02-11T06:50:20.070Z,6.80
2024-02-11T06:52:49.977Z,6.80
2024-02-11T06:55:17.541Z,6.80
2024-02-11T06:57:45.951Z,6.80
2024-02-11T07:00:13.353Z,6.80
2024-02-11T07:02:40.450Z,6.80
2024-02-11T07:05:10.878Z,6.80
2024-02-11T07:07:38.091Z,6.80
2024-02-11T07:10:05.529Z,6.80
2024-02-11T07:12:32.151Z,6.80
2024-02-11T07:14:58.906Z,6.80
2024-02-11T07:17:25.718Z,6.80
2024-02-11T07:19:53.797Z,6.80
2024-02-11T07:22:21.127Z,6.90
2024-02-11T07:24:48.499Z,6.90
2024-02-11T07:27:15.947Z,6.90
2024-02-11T07:29:45.797Z,6.90
2024-02-11T07:32:13.893Z,6.90
2024-02-11T07:34:41.179Z,6.90
2024-02-11T07:37:08.166Z,7.00
2024-02-11T07:39:34.756Z,7.00
2024-02-11T07:42:02.049Z,7.00
2024-02-11T07:44:29.359Z,7.00
2024-02-11T07:46:56.335Z,7.00
2024-02-11T07:49:23.018Z,7.10
2024-02-11T07:51:50.068Z,7.10
2024-02-11T07:54:18.330Z,7.10
2024-02-11T07:56:44.929Z,7.10
2024-02-11T07:59:15.746Z,7.10
2024-02-11T08:01:43.087Z,7.20
2024-02-11T08:04:11.023Z,7.20
2024-02-11T08:06:37.911Z,7.20
2024-02-11T08:09:04.729Z,7.20
2024-02-11T08:11:32.048Z,7.30
2024-02-11T08:13:58.740Z,7.30
2024-02-11T08:16:27.009Z,7.30
2024-02-11T08:18:55.773Z,7.40
2024-02-11T08:21:22.758Z,7.40
2024-02-11T08:23:49.563Z,7.40
2024-02-11T08:26:16.578Z,7.50
2024-02-11T08:28:43.470Z,7.50
2024-02-11T08:31:10.411Z,7.50
2024-02-11T08:33:37.089Z,7.50
2024-02-11T08:36:03.937Z,7.50
2024-02-11T08:38:32.332Z,7.50
2024-02-11T08:40:59.252Z,7.50
2024-02-11T08:43:26.915Z,7.50
2024-02-11T08:45:54.167Z,7.60
2024-02-11T08:48:21.733Z,7.60
2024-02-11T08:50:51.566Z,7.70
2024-02-11T08:53:20.245Z,7.80
2024-02-11T08:55:46.982Z,7.80
2024-02-11T08:58:18.324Z,7.80
2024-02-11T09:00:45.012Z,7.90
2024-02-11T09:03:12.332Z,7.90
2024-02-11T09:05:38.922Z,8.00
2024-02-11T09:08:05.854Z,8.00
2024-02-11T09:10:34.108Z,8.00
2024-02-11T09:13:00.694Z,8.10
2024-02-11T09:15:28.277Z,8.10
2024-02-11T09:17:55.327Z,8.20
2024-02-11T09:20:22.191Z,8.20
2024-02-11T09:22:49.987Z,8.20
2024-02-11T09:25:17.119Z,8.30
2024-02-11T09:27:44.290Z,8.30
2024-02-11T09:30:16.745Z,8.40
2024-02-11T09:32:44.190Z,8.40
2024-02-11T09:35:10.968Z,8.50
2024-02-11T09:37:37.747Z,8.50
2024-02-11T09:40:04.491Z,8.50
2024-02-11T09:42:31.778Z,8.60
2024-02-11T09:44:59.825Z,8.60
2024-02-11T09:47:26.639Z,8.70
2024-02-11T09:49:54.682Z,8.70
2024-02-11T09:52:22.227Z,8.70
2024-02-11T09:54:49.350Z,8.70
2024-02-11T09:57:15.954Z,8.70
2024-02-11T09:59:42.569Z,8.80
2024-02-11T10:02:15.140Z,8.80
2024-02-11T10:04:43.335Z,8.70
2024-02-11T10:07:13.016Z,8.70
2024-02-11T10:09:39.650Z,8.80
2024-02-11T10:12:06.575Z,8.80
2024-02-11T10:14:33.284Z,8.80
2024-02-11T10:17:00.837Z,8.80
2024-02-11T10:19:29.993Z,8.80
2024-02-11T10:22:09.671Z,8.90
2024-02-11T10:24:43.264Z,8.90
2024-02-11T10:27:11.289Z,8.90
2024-02-11T10:29:38.972Z,8.90
2024-02-11T10:32:10.180Z,8.90
2024-02-11T10:34:37.091Z,8.80
2024-02-11T10:37:05.064Z,8.80
2024-02-11T10:39:31.614Z,8.80
2024-02-11T10:41:58.428Z,8.70
2024-02-11T10:44:25.065Z,8.70
2024-02-11T10:46:53.538Z,8.70
2024-02-11T10:49:20.642Z,8.70
2024-02-11T10:51:50.007Z,8.60
2024-02-11T10:54:16.664Z,8.60
2024-02-11T10:56:45.269Z,8.60
2024-02-11T10:59:21.953Z,8.60
2024-02-11T11:01:49.125Z,8.50
2024-02-11T11:04:19.584Z,8.50
2024-02-11T11:06:46.865Z,8.50
2024-02-11T11:09:13.991Z,8.50
2024-02-11T11:11:40.839Z,8.60
2024-02-11T11:14:10.707Z,8.60
2024-02-11T11:16:46.993Z,8.60
2024-02-11T11:19:14.557Z,8.60
2024-02-11T11:21:57.265Z,8.60
2024-02-11T11:24:24.285Z,8.60
2024-02-11T11:26:54.680Z,8.60
2024-02-11T11:29:26.150Z,8.70
2024-02-11T11:31:58.770Z,8.60
2024-02-11T11:34:31.752Z,8.70
2024-02-11T11:37:11.975Z,8.70
2024-02-11T11:39:38.712Z,8.70
2024-02-11T11:42:06.560Z,8.70
2024-02-11T11:44:33.585Z,8.70
2024-02-11T11:47:00.296Z,8.70
2024-02-11T11:49:26.996Z,8.70
2024-02-11T11:51:59.618Z,8.70
2024-02-11T11:54:29.769Z,8.70
2024-02-11T11:56:57.091Z,8.70
2024-02-11T11:59:29.275Z,8.80
2024-02-11T12:01:57.224Z,8.80
2024-02-11T12:04:24.074Z,8.80
2024-02-11T12:06:50.687Z,8.80
2024-02-11T12:09:17.300Z,8.80
2024-02-11T12:11:50.002Z,8.80
2024-02-11T12:14:16.791Z,8.80
2024-02-11T12:16:43.938Z,8.80
2024-02-11T12:19:11.558Z,8.80
2024-02-11T12:21:38.259Z,8.90
2024-02-11T12:24:09.612Z,8.80
2024-02-11T12:26:39.236Z,8.80
2024-02-11T12:29:05.916Z,8.90
2024-02-11T12:31:34.233Z,8.90
2024-02-11T12:34:02.183Z,8.90
2024-02-11T12:36:31.528Z,8.90
2024-02-11T12:38:58.342Z,8.80
2024-02-11T12:41:26.116Z,8.80
2024-02-11T12:43:53.777Z,8.80
2024-02-11T12:46:20.430Z,8.80
2024-02-11T12:48:47.751Z,8.80
2024-02-11T12:51:15.740Z,8.80
2024-02-11T12:53:43.172Z,8.80
2024-02-11T12:56:12.077Z,8.80
2024-02-11T12:58:43.530Z,8.80
2024-02-11T13:01:11.906Z,8.80
2024-02-11T13:03:42.477Z,8.70
2024-02-11T13:06:09.896Z,8.80
2024-02-11T13:08:37.131Z,8.80
2024-02-11T13:11:04.214Z,8.80
2024-02-11T13:13:33.556Z,8.80
2024-02-11T13:16:03.196Z,8.80
2024-02-11T13:18:30.224Z,8.70
2024-02-11T13:20:58.973Z,8.70
2024-02-11T13:23:26.077Z,8.70
2024-02-11T13:25:53.181Z,8.70
2024-02-11T13:28:21.105Z,8.70
2024-02-11T13:30:48.559Z,8.70
2024-02-11T13:33:15.847Z,8.60
2024-02-11T13:35:42.726Z,8.60
2024-02-11T13:38:10.198Z,8.60
2024-02-11T13:40:37.142Z,8.60
2024-02-11T13:43:04.216Z,8.60
2024-02-11T13:45:31.776Z,8.60
2024-02-11T13:47:58.981Z,8.60
2024-02-11T13:50:25.754Z,8.60
2024-02-11T13:52:52.746Z,8.60
2024-02-11T13:55:19.953Z,8.60
2024-02-11T13:57:46.597Z,8.60
2024-02-11T14:00:13.746Z,8.60
2024-02-11T14:02:41.176Z,8.60
2024-02-11T14:05:08.092Z,8.60
2024-02-11T14:07:35.060Z,8.70
2024-02-11T14:10:01.794Z,8.60
2024-02-11T14:12:30.783Z,8.60
2024-02-11T14:14:58.191Z,8.60
2024-02-11T14:17:26.206Z,8.60
2024-02-11T14:19:52.933Z,8.60
2024-02-11T14:22:19.667Z,8.50
2024-02-11T14:24:46.340Z,8.50
2024-02-11T14:27:14.329Z,8.50
2024-02-11T14:29:41.942Z,8.50
2024-02-11T14:32:08.624Z,8.50
2024-02-11T14:34:36.368Z,8.50
2024-02-11T14:37:03.073Z,8.50
2024-02-11T14:39:29.831Z,8.50
2024-02-11T14:41:56.738Z,8.50
2024-02-11T14:44:24.489Z,8.50
2024-02-11T14:46:56.730Z,8.50
2024-02-11T14:49:25.889Z,8.50
2024-02-11T14:51:52.602Z,8.50
2024-02-11T14:54:19.223Z,8.50
2024-02-11T14:56:47.099Z,8.40
2024-02-11T14:59:13.905Z,8.40
2024-02-11T15:01:40.865Z,8.40
2024-02-11T15:04:07.621Z,8.40
2024-02-11T15:06:34.458Z,8.40
2024-02-11T15:09:01.666Z,8.40
2024-02-11T15:11:29.428Z,8.50
2024-02-11T15:13:57.681Z,8.40
2024-02-11T15:16:24.267Z,8.40
2024-02-11T15:18:50.907Z,8.40
2024-02-11T15:21:17.622Z,8.40
2024-02-11T15:23:44.178Z,8.40
2024-02-11T15:26:10.797Z,8.40
2024-02-11T15:28:37.864Z,8.30
2024-02-11T15:31:04.902Z,8.30
2024-02-11T15:33:31.756Z,8.30
2024-02-11T15:35:58.493Z,8.30
2024-02-11T15:38:27.255Z,8.30
2024-02-11T15:40:54.899Z,8.20
2024-02-11T15:43:21.764Z,8.20
2024-02-11T15:45:48.385Z,8.20
2024-02-11T15:48:15.136Z,8.20
2024-02-11T15:50:42.031Z,8.20
2024-02-11T15:53:09.434Z,8.20
2024-02-11T15:55:36.469Z,8.20
2024-02-11T15:58:03.183Z,8.20
2024-02-11T16:00:31.993Z,8.20
2024-02-11T16:03:00.643Z,8.10
2024-02-11T16:05:27.446Z,8.10
2024-02-11T16:07:54.171Z,8.10
2024-02-11T16:10:21.989Z,8.10
2024-02-11T16:12:49.001Z,8.10
2024-02-11T16:15:15.730Z,8.10
2024-02-11T16:17:42.768Z,8.10
2024-02-11T16:20:13.802Z,8.10
2024-02-11T16:22:43.791Z,8.10
2024-02-11T16:25:10.545Z,8.10
2024-02-11T16:27:37.119Z,8.10
2024-02-11T16:30:06.558Z,8.00
2024-02-11T16:32:33.567Z,8.00
2024-02-11T16:35:00.852Z,8.00
2024-02-11T16:37:28.802Z,8.00
2024-02-11T16:39:56.275Z,7.90
2024-02-11T16:42:22.860Z,7.90
2024-02-11T16:44:53.502Z,7.90
2024-02-11T16:47:24.646Z,7.90
2024-02-11T16:49:51.503Z,7.80
2024-02-11T16:52:19.234Z,7.80
2024-02-11T16:54:47.063Z,7.80
2024-02-11T16:57:16.942Z,7.80
2024-02-11T16:59:43.675Z,7.80
2024-02-11T17:02:11.218Z,7.80
2024-02-11T17:04:38.345Z,7.80
2024-02-11T17:07:05.046Z,7.80
2024-02-11T17:09:32.987Z,7.80
2024-02-11T17:11:59.841Z,7.80
2024-02-11T17:14:28.738Z,7.80
2024-02-11T17:16:57.886Z,7.80
2024-02-11T17:19:24.803Z,7.80
2024-02-11T17:21:51.530Z,7.80
2024-02-11T17:24:18.203Z,7.80
2024-02-11T17:26:45.593Z,7.70
2024-02-11T17:29:12.436Z,7.70
2024-02-11T17:31:42.264Z,7.70
2024-02-11T17:34:14.677Z,7.70
2024-02-11T17:36:43.166Z,7.70
2024-02-11T17:39:11.057Z,7.70
2024-02-11T17:41:40.955Z,7.70
2024-02-11T17:44:09.087Z,7.60
2024-02-11T17:46:36.575Z,7.70
2024-02-11T17:49:03.621Z,7.70
2024-02-11T17:51:30.412Z,7.70
2024-02-11T17:54:00.303Z,7.70
2024-02-11T17:56:28.531Z,7.70
2024-02-11T17:58:56.083Z,7.60
2024-02-11T18:01:24.849Z,7.60
2024-02-11T18:03:51.800Z,7.60
2024-02-11T18:06:20.961Z,7.60
2024-02-11T18:08:49.371Z,7.60
2024-02-11T18:11:16.257Z,7.70
2024-02-11T18:13:42.860Z,7.70
2024-02-11T18:16:09.744Z,7.70
2024-02-11T18:18:39.338Z,7.60
2024-02-11T18:21:06.174Z,7.60
2024-02-11T18:23:35.307Z,7.60
2024-02-11T18:26:07.949Z,7.60
2024-02-11T18:28:40.223Z,7.60
2024-02-11T18:31:08.695Z,7.60
2024-02-11T18:33:35.707Z,7.60
2024-02-11T18:36:02.427Z,7.60
2024-02-11T18:38:31.952Z,7.60
2024-02-11T18:40:59.762Z,7.60
2024-02-11T18:43:26.404Z,7.60
2024-02-11T18:45:53.103Z,7.60
2024-02-11T18:48:20.527Z,7.60
2024-02-11T18:50:47.206Z,7.50
2024-02-11T18:53:15.745Z,7.50
2024-02-11T18:55:42.422Z,7.50
2024-02-11T18:58:09.743Z,7.50
2024-02-11T19:00:37.238Z,7.50
2024-02-11T19:03:03.968Z,7.50
2024-02-11T19:05:33.406Z,7.50
2024-02-11T19:08:01.716Z,7.50
2024-02-11T19:10:29.248Z,7.50
2024-02-11T19:12:56.368Z,7.40
2024-02-11T19:15:22.924Z,7.40
2024-02-11T19:17:49.815Z,7.50
2024-02-11T19:20:18.905Z,7.50
2024-02-11T19:22:46.740Z,7.50
2024-02-11T19:25:14.591Z,7.50
2024-02-11T19:27:41.620Z,7.50
2024-02-11T19:30:10.420Z,7.50
2024-02-11T19:32:41.528Z,7.50
2024-02-11T19:35:08.952Z,7.50
2024-02-11T19:37:38.001Z,7.40
2024-02-11T19:40:11.560Z,7.40
2024-02-11T19:42:39.096Z,7.40
2024-02-11T19:45:09.392Z,7.40
2024-02-11T19:47:37.098Z,7.50
2024-02-11T19:50:07.160Z,7.40
2024-02-11T19:52:34.223Z,7.40
2024-02-11T19:55:04.660Z,7.40
2024-02-11T19:57:31.615Z,7.50
2024-02-11T19:59:58.546Z,7.50
2024-02-11T20:02:26.008Z,7.50
2024-02-11T20:04:55.084Z,7.50
2024-02-11T20:07:24.822Z,7.50
2024-02-11T20:09:51.467Z,7.40
2024-02-11T20:12:21.842Z,7.40
2024-02-11T20:14:48.718Z,7.40
2024-02-11T20:17:15.416Z,7.40
2024-02-11T20:19:42.296Z,7.50
2024-02-11T20:22:12.831Z,7.40
2024-02-11T20:24:40.622Z,7.50
2024-02-11T20:27:08.878Z,7.40
2024-02-11T20:29:36.024Z,7.50
2024-02-11T20:32:02.807Z,7.50
2024-02-11T20:34:29.810Z,7.50
2024-02-11T20:36:57.214Z,7.50
2024-02-11T20:39:23.988Z,7.50
2024-02-11T20:41:51.767Z,7.50
2024-02-11T20:44:18.890Z,7.50
2024-02-11T20:46:45.471Z,7.50
2024-02-11T20:49:12.094Z,7.50
2024-02-11T20:51:38.891Z,7.50
2024-02-11T20:54:08.320Z,7.50
2024-02-11T20:56:35.496Z,7.50
2024-02-11T20:59:02.451Z,7.50
2024-02-11T21:01:29.040Z,7.50
2024-02-11T21:03:57.269Z,7.50
2024-02-11T21:06:23.945Z,7.50
2024-02-11T21:08:53.438Z,7.50
2024-02-11T21:11:20.465Z,7.50
2024-02-11T21:13:47.711Z,7.50
2024-02-11T21:16:15.024Z,7.50
2024-02-11T21:18:47.385Z,7.50
2024-02-11T21:21:14.400Z,7.40
2024-02-11T21:23:45.388Z,7.40
2024-02-11T21:26:14.523Z,7.40
2024-02-11T21:28:42.252Z,7.40
2024-02-11T21:31:19.749Z,7.50
2024-02-11T21:33:50.074Z,7.50
2024-02-11T21:36:17.210Z,7.40
2024-02-11T21:38:44.437Z,7.40
2024-02-11T21:41:11.586Z,7.40
2024-02-11T21:43:38.814Z,7.40
2024-02-11T21:46:10.567Z,7.40
2024-02-11T21:48:40.989Z,7.40
2024-02-11T21:51:08.158Z,7.50
2024-02-11T21:53:34.831Z,7.50
2024-02-11T21:56:01.849Z,7.40
2024-02-11T21:58:29.538Z,7.50
2024-02-11T22:00:59.135Z,7.50
2024-02-11T22:03:25.788Z,7.40
2024-02-11T22:05:52.514Z,7.40
2024-02-11T22:08:19.513Z,7.40
2024-02-11T22:10:47.176Z,7.40
2024-02-11T22:13:13.861Z,7.40
2024-02-11T22:15:40.557Z,7.40
2024-02-11T22:18:07.201Z,7.40
2024-02-11T22:20:33.860Z,7.40
2024-02-11T22:23:01.049Z,7.40
2024-02-11T22:25:27.725Z,7.40
2024-02-11T22:27:54.613Z,7.40
2024-02-11T22:30:21.231Z,7.40
2024-02-11T22:32:47.852Z,7.40
2024-02-11T22:35:16.272Z,7.40
2024-02-11T22:37:43.248Z,7.40
2024-02-11T22:40:12.558Z,7.40
2024-02-11T22:42:41.469Z,7.40
2024-02-11T22:45:09.162Z,7.40
2024-02-11T22:47:36.283Z,7.40
2024-02-11T22:50:03.136Z,7.40
2024-02-11T22:52:30.300Z,7.40
2024-02-11T22:55:00.466Z,7.40
2024-02-11T22:57:27.337Z,7.40
2024-02-11T22:59:54.058Z,7.40
2024-02-11T23:02:21.864Z,7.30
2024-02-11T23:04:49.007Z,7.30
2024-02-11T23:07:15.904Z,7.40
2024-02-11T23:09:43.279Z,7.40
2024-02-11T23:12:10.696Z,7.30
2024-02-11T23:14:37.897Z,7.30
2024-02-11T23:17:05.511Z,7.30
2024-02-11T23:19:32.387Z,7.30
2024-02-11T23:22:05.941Z,7.30
2024-02-11T23:24:32.648Z,7.30
2024-02-11T23:27:06.964Z,7.30
2024-02-11T23:29:36.655Z,7.30
2024-02-11T23:32:05.354Z,7.30
2024-02-11T23:34:33.241Z,7.30
2024-02-11T23:37:02.411Z,7.30
2024-02-11T23:39:29.638Z,7.20
2024-02-11T23:41:56.319Z,7.30
2024-02-11T23:44:23.369Z,7.30
2024-02-11T23:46:50.848Z,7.20
2024-02-11T23:49:20.180Z,7.20
2024-02-11T23:51:48.276Z,7.20
2024-02-11T23:54:16.694Z,7.20
2024-02-11T23:56:43.540Z,7.20
2024-02-11T23:59:11.000Z,7.20
